Time;durP1;ratioP1;P1;durP2;ratioP2;P2;SDS_P1;SDS_P2;PMS_P1;PMS_P2;Temp;Humidity;BMP_temperature;BMP_pressure;BME280_temperature;BME280_humidity;BME280_pressure;Samples;Min_cycle;Max_cycle;Signal;HPM_P1;HPM_P2
2021/04/16 00:00:27;;;;;;;0.90;0.70;;;;;;;26.20;26.18;97273.00;5065439;28;20098;-25
2021/04/16 00:02:55;;;;;;;1.20;0.50;;;;;;;26.20;26.05;97278.25;5074794;28;20062;-27
2021/04/16 00:05:20;;;;;;;1.40;0.50;;;;;;;26.19;26.07;97271.28;5066257;28;20036;-28
2021/04/16 00:07:46;;;;;;;1.42;0.60;;;;;;;26.19;26.14;97271.28;5065337;28;20066;-26
2021/04/16 00:10:16;;;;;;;0.50;0.40;;;;;;;26.19;26.05;97266.88;5066718;28;20034;-26
2021/04/16 00:12:42;;;;;;;0.32;0.32;;;;;;;26.19;26.03;97273.91;5062665;28;20087;-27
2021/04/16 00:15:10;;;;;;;1.42;0.60;;;;;;;26.18;26.10;97265.19;5065628;28;20028;-25
2021/04/16 00:17:35;;;;;;;1.58;0.50;;;;;;;26.18;26.04;97264.34;5066171;28;20971;-26
2021/04/16 00:20:01;;;;;;;0.95;0.70;;;;;;;26.18;26.09;97264.34;5066620;28;20040;-24
2021/04/16 00:22:26;;;;;;;1.17;0.50;;;;;;;26.17;26.13;97257.38;5062094;28;20033;-25
2021/04/16 00:24:52;;;;;;;4.85;0.70;;;;;;;26.18;26.05;97264.34;5058951;28;20059;-24
2021/04/16 00:27:17;;;;;;;1.17;0.57;;;;;;;26.17;26.07;97258.25;5063740;28;20028;-22
2021/04/16 00:29:42;;;;;;;1.02;0.50;;;;;;;26.16;26.14;97246.00;5064267;28;20021;-26
2021/04/16 00:32:08;;;;;;;0.52;0.50;;;;;;;26.18;26.17;97259.06;5065891;28;20035;-27
2021/04/16 00:34:33;;;;;;;1.00;0.47;;;;;;;26.17;26.15;97252.13;5063392;28;20879;-24
2021/04/16 00:36:58;;;;;;;1.17;0.55;;;;;;;26.16;26.08;97242.56;5066337;28;20036;-27
2021/04/16 00:39:24;;;;;;;1.88;0.60;;;;;;;26.16;26.07;97243.38;5063421;28;20432;-22
2021/04/16 00:41:50;;;;;;;0.88;0.50;;;;;;;26.15;26.08;97238.19;5063107;28;20479;-28
2021/04/16 00:44:15;;;;;;;3.90;0.40;;;;;;;26.15;26.09;97239.06;5067707;28;20024;-25
2021/04/16 00:46:47;;;;;;;0.82;0.40;;;;;;;26.15;26.03;97235.56;5065949;28;20526;-26
2021/04/16 00:49:16;;;;;;;1.08;0.47;;;;;;;26.15;26.05;97233.81;5064659;28;20510;-24
2021/04/16 00:51:44;;;;;;;0.65;0.50;;;;;;;26.15;26.03;97238.19;5056940;28;20081;-25
2021/04/16 00:54:15;;;;;;;0.98;0.50;;;;;;;26.15;26.18;97232.94;5062183;28;20024;-26
2021/04/16 00:56:40;;;;;;;0.65;0.50;;;;;;;26.14;26.00;97237.38;5082869;28;20110;-25
2021/04/16 00:59:06;;;;;;;2.47;0.50;;;;;;;26.14;26.20;97236.50;5050712;28;20028;-25
2021/04/16 01:01:31;;;;;;;1.23;0.73;;;;;;;26.14;26.15;97228.63;5058765;28;20510;-22
2021/04/16 01:03:57;;;;;;;1.17;0.40;;;;;;;26.14;26.15;97231.25;5066241;28;20095;-23
2021/04/16 01:06:22;;;;;;;0.45;0.45;;;;;;;26.13;26.12;97221.69;5064777;28;20125;-28
2021/04/16 01:08:48;;;;;;;0.70;0.63;;;;;;;26.14;26.19;97223.38;5061462;28;20379;-25
2021/04/16 01:11:13;;;;;;;1.95;0.40;;;;;;;26.14;26.20;97218.13;5052266;28;20020;-25
2021/04/16 01:13:39;;;;;;;0.95;0.32;;;;;;;26.14;26.21;97223.38;5081984;27;20036;-25
2021/04/16 01:16:05;;;;;;;0.40;0.40;;;;;;;26.12;26.20;97220.81;5063846;28;20063;-27
2021/04/16 01:18:34;;;;;;;0.57;0.52;;;;;;;26.14;26.15;97215.50;5059830;28;20605;-23
2021/04/16 01:21:02;;;;;;;1.80;0.50;;;;;;;26.13;26.08;97211.16;5066659;28;20132;-25
2021/04/16 01:23:37;;;;;;;0.52;0.50;;;;;;;26.13;26.02;97216.44;5062051;28;20029;-28
2021/04/16 01:26:04;;;;;;;0.55;0.50;;;;;;;26.11;26.18;97213.88;5062942;28;20032;-24
2021/04/16 01:28:29;;;;;;;0.30;0.30;;;;;;;26.12;26.20;97217.34;5052607;28;20055;-29
2021/04/16 01:30:59;;;;;;;0.60;0.60;;;;;;;26.12;26.11;97222.59;5063304;28;20024;-24
2021/04/16 01:33:27;;;;;;;1.27;0.50;;;;;;;26.12;26.06;97214.72;5062174;28;20028;-26
2021/04/16 01:35:52;;;;;;;0.45;0.45;;;;;;;26.10;26.28;97213.00;5064191;28;20329;-27
2021/04/16 01:38:17;;;;;;;1.25;0.57;;;;;;;26.11;26.13;97208.63;5062126;28;20567;-26
2021/04/16 01:40:43;;;;;;;1.23;0.60;;;;;;;26.10;26.13;97210.38;5063913;28;20519;-28
2021/04/16 01:43:24;;;;;;;0.57;0.40;;;;;;;26.10;26.03;97209.53;5064844;28;20028;-24
2021/04/16 01:46:18;;;;;;;1.27;0.63;;;;;;;26.09;26.20;97213.94;5061203;28;20107;-21
2021/04/16 01:48:47;;;;;;;0.73;0.52;;;;;;;26.09;26.02;97213.94;5066301;28;20570;-27
2021/04/16 01:51:18;;;;;;;0.70;0.50;;;;;;;26.10;26.18;97215.63;5068723;28;20032;-26
2021/04/16 01:53:44;;;;;;;0.50;0.43;;;;;;;26.09;26.24;97213.94;5061978;28;20033;-27
2021/04/16 01:56:09;;;;;;;0.60;0.40;;;;;;;26.08;26.22;97211.38;5065916;28;20056;-29
2021/04/16 01:58:34;;;;;;;1.00;0.50;;;;;;;26.07;26.08;97200.03;5064857;28;20039;-24
2021/04/16 02:01:00;;;;;;;1.55;0.57;;;;;;;26.08;26.20;97201.72;5059455;28;20044;-26
2021/04/16 02:03:26;;;;;;;0.60;0.45;;;;;;;26.07;26.17;97197.41;5077223;28;20086;-23
2021/04/16 02:05:51;;;;;;;0.57;0.50;;;;;;;26.03;26.15;97193.22;5065913;28;20090;-27
2021/04/16 02:08:17;;;;;;;0.47;0.38;;;;;;;26.06;26.12;97195.72;5065815;28;20444;-26
2021/04/16 02:10:43;;;;;;;2.50;0.40;;;;;;;26.07;26.26;97199.19;5064529;28;20062;-27
2021/04/16 02:13:08;;;;;;;0.43;0.40;;;;;;;26.07;26.09;97194.78;5063358;28;20098;-27
2021/04/16 02:15:34;;;;;;;1.00;0.50;;;;;;;26.06;26.12;97193.09;5066888;28;20208;-26
2021/04/16 02:17:59;;;;;;;1.98;0.60;;;;;;;26.06;26.05;97192.22;5065380;28;20081;-27
2021/04/16 02:20:25;;;;;;;0.68;0.40;;;;;;;26.06;26.22;97192.22;5061872;28;20365;-27
2021/04/16 02:22:51;;;;;;;2.38;1.13;;;;;;;26.06;26.12;97187.84;5055219;28;20028;-25
2021/04/16 02:25:16;;;;;;;2.40;1.02;;;;;;;26.05;26.03;97191.38;5064584;28;20408;-24
2021/04/16 02:27:42;;;;;;;1.75;0.80;;;;;;;26.04;26.15;97189.66;5061379;28;20507;-25
2021/04/16 02:30:09;;;;;;;1.38;0.70;;;;;;;26.03;25.84;97187.97;5065722;28;20086;-27
2021/04/16 02:32:35;;;;;;;2.65;0.77;;;;;;;26.03;25.96;97187.97;5064011;28;20124;-28
2021/04/16 02:35:00;;;;;;;0.68;0.45;;;;;;;26.03;26.21;97187.13;5062738;28;20547;-21
2021/04/16 02:37:25;;;;;;;0.75;0.60;;;;;;;26.03;26.03;97187.13;5060643;28;20028;-29
2021/04/16 02:39:51;;;;;;;1.17;0.50;;;;;;;26.03;26.23;97187.13;5064475;28;20058;-25
2021/04/16 02:42:16;;;;;;;2.42;0.70;;;;;;;26.01;26.23;97195.06;5065504;28;20494;-27
2021/04/16 02:44:43;;;;;;;0.75;0.50;;;;;;;26.02;26.21;97191.53;5061069;28;20072;-27
2021/04/16 02:47:08;;;;;;;1.88;0.52;;;;;;;26.02;26.21;97185.41;5064991;28;20554;-26
2021/04/16 02:49:34;;;;;;;1.65;0.43;;;;;;;26.01;26.27;97189.81;5061513;28;20040;-25
2021/04/16 02:52:00;;;;;;;4.05;0.52;;;;;;;26.02;26.11;97182.78;5062476;28;20024;-24
2021/04/16 02:54:25;;;;;;;0.65;0.55;;;;;;;26.01;26.22;97184.56;5061340;28;20620;-23
2021/04/16 02:56:51;;;;;;;0.70;0.57;;;;;;;26.01;26.27;97192.44;5065095;28;22018;-31
2021/04/16 02:59:19;;;;;;;1.48;0.80;;;;;;;26.01;26.21;97188.97;5063770;28;20377;-22
2021/04/16 03:01:45;;;;;;;2.45;0.32;;;;;;;26.00;26.20;97180.25;5064400;28;20043;-25
2021/04/16 03:04:10;;;;;;;2.42;0.60;;;;;;;26.01;26.09;97179.31;5062296;28;20032;-27
2021/04/16 03:06:36;;;;;;;1.48;0.60;;;;;;;26.01;26.13;97179.31;5044393;28;20024;-26
2021/04/16 03:09:01;;;;;;;2.25;0.45;;;;;;;26.00;26.25;97180.25;5059081;28;20503;-26
2021/04/16 03:11:27;;;;;;;1.20;0.50;;;;;;;26.00;26.13;97182.88;5067417;28;20032;-26
2021/04/16 03:13:52;;;;;;;0.45;0.45;;;;;;;25.99;26.30;97181.16;5067963;28;20656;-25
2021/04/16 03:16:19;;;;;;;1.00;0.45;;;;;;;26.00;26.23;97182.03;5083144;27;20705;-24
2021/04/16 03:18:44;;;;;;;0.85;0.43;;;;;;;26.00;26.05;97177.59;5066387;28;20028;-25
2021/04/16 03:21:10;;;;;;;1.48;0.52;;;;;;;25.98;26.20;97173.34;5065848;28;20031;-24
2021/04/16 03:23:35;;;;;;;0.93;0.52;;;;;;;25.97;26.11;97167.25;5067034;28;20025;-23
2021/04/16 03:26:01;;;;;;;0.80;0.60;;;;;;;25.96;26.10;97166.41;5064602;28;20033;-24
2021/04/16 03:28:26;;;;;;;2.35;0.50;;;;;;;25.96;26.31;97163.78;5066856;28;20039;-25
2021/04/16 03:30:51;;;;;;;1.65;1.25;;;;;;;25.97;26.25;97172.50;5069342;28;20032;-20
2021/04/16 03:33:17;;;;;;;1.55;0.80;;;;;;;25.97;26.14;97172.50;5069312;28;20035;-26
2021/04/16 03:35:43;;;;;;;2.55;0.45;;;;;;;25.96;26.10;97166.41;5065710;28;20024;-26
2021/04/16 03:38:08;;;;;;;1.17;0.45;;;;;;;25.96;26.08;97173.44;5079757;27;20062;-27
2021/04/16 03:40:34;;;;;;;1.45;0.68;;;;;;;25.92;26.11;97164.00;5083033;27;20029;-26
2021/04/16 03:43:00;;;;;;;0.70;0.57;;;;;;;25.97;26.07;97177.75;5069196;28;20044;-26
2021/04/16 03:45:25;;;;;;;0.88;0.50;;;;;;;25.94;26.16;97165.63;5064698;28;20020;-22
2021/04/16 03:47:51;;;;;;;1.15;0.52;;;;;;;25.96;26.19;97168.19;5066749;28;20429;-27
2021/04/16 03:50:18;;;;;;;0.50;0.40;;;;;;;25.95;26.13;97166.47;5067556;28;20024;-29
2021/04/16 03:52:44;;;;;;;0.95;0.60;;;;;;;25.95;26.05;97166.47;5070811;28;20688;-26
2021/04/16 03:55:10;;;;;;;0.68;0.40;;;;;;;25.95;26.10;97169.97;5064630;28;20116;-25
2021/04/16 03:57:35;;;;;;;0.40;0.40;;;;;;;25.95;26.35;97166.47;5064444;28;20115;-25
2021/04/16 04:00:03;;;;;;;0.57;0.57;;;;;;;25.95;26.28;97174.34;5068578;28;20123;-26
2021/04/16 04:02:29;;;;;;;0.40;0.40;;;;;;;25.94;26.09;97164.78;5070180;28;20047;-27
2021/04/16 04:04:54;;;;;;;0.60;0.45;;;;;;;25.94;26.05;97172.66;5064177;28;20040;-25
2021/04/16 04:07:19;;;;;;;0.75;0.50;;;;;;;25.94;26.24;97172.66;5059026;28;20036;-28
2021/04/16 04:09:45;;;;;;;1.20;0.50;;;;;;;25.94;26.26;97178.75;5063419;28;20024;-27
2021/04/16 04:12:10;;;;;;;2.45;0.30;;;;;;;25.93;26.13;97181.47;5068599;28;20047;-25
2021/04/16 04:14:36;;;;;;;1.08;0.38;;;;;;;25.93;26.22;97177.06;5065236;28;20028;-29
2021/04/16 04:17:02;;;;;;;0.40;0.40;;;;;;;25.93;26.29;97182.31;5057832;28;20570;-24
2021/04/16 04:19:29;;;;;;;0.93;0.50;;;;;;;25.94;26.06;97183.16;5058734;28;20028;-27
2021/04/16 04:21:55;;;;;;;0.90;0.35;;;;;;;25.93;26.16;97170.97;5060029;28;20059;-26
2021/04/16 04:24:20;;;;;;;1.27;0.57;;;;;;;25.92;26.09;97180.59;5064464;28;20484;-25
2021/04/16 04:26:46;;;;;;;0.90;0.50;;;;;;;25.91;26.20;97176.28;5064882;28;20032;-27
2021/04/16 04:29:12;;;;;;;0.40;0.40;;;;;;;25.92;26.18;97179.75;5067148;28;20607;-26
2021/04/16 04:31:46;;;;;;;0.40;0.35;;;;;;;25.91;26.25;97176.28;5064784;28;20387;-27
2021/04/16 04:34:18;;;;;;;0.40;0.40;;;;;;;25.91;26.15;97180.69;5069161;28;20035;-25
2021/04/16 04:36:43;;;;;;;2.20;0.28;;;;;;;25.91;26.17;97188.56;5064164;28;20028;-25
2021/04/16 04:39:08;;;;;;;0.57;0.40;;;;;;;25.91;26.12;97183.31;5068487;28;20036;-27
2021/04/16 04:41:34;;;;;;;0.35;0.35;;;;;;;25.91;26.20;97181.53;5062025;28;20592;-29
2021/04/16 04:43:59;;;;;;;1.38;0.32;;;;;;;25.90;26.12;97182.44;5064710;28;20028;-26
2021/04/16 04:46:25;;;;;;;0.70;0.40;;;;;;;25.90;25.98;97186.88;5064439;28;20032;-23
2021/04/16 04:48:50;;;;;;;1.65;0.40;;;;;;;25.89;26.07;97185.16;5066172;28;20488;-28
2021/04/16 04:51:15;;;;;;;1.40;0.40;;;;;;;25.89;26.21;97185.16;5063692;28;20028;-27
2021/04/16 04:53:41;;;;;;;0.35;0.30;;;;;;;25.89;26.13;97195.66;5068158;28;20097;-24
2021/04/16 04:56:06;;;;;;;1.33;0.60;;;;;;;25.89;26.22;97191.25;5060391;28;20492;-25
2021/04/16 04:58:31;;;;;;;1.35;0.50;;;;;;;25.88;26.30;97194.81;5068358;28;20040;-25
2021/04/16 05:00:57;;;;;;;0.90;0.50;;;;;;;25.88;26.07;97191.31;5063434;28;20036;-26
2021/04/16 05:03:22;;;;;;;0.55;0.40;;;;;;;25.87;26.15;97193.13;5066977;28;20044;-26
2021/04/16 05:05:48;;;;;;;1.23;0.70;;;;;;;25.88;26.26;97200.06;5066087;28;21482;-25
2021/04/16 05:08:13;;;;;;;0.70;0.20;;;;;;;25.87;26.28;97197.50;5061128;28;20032;-25
2021/04/16 05:10:38;;;;;;;0.68;0.52;;;;;;;25.87;26.10;97193.13;5068526;28;20028;-26
2021/04/16 05:13:04;;;;;;;1.45;0.50;;;;;;;25.87;26.24;97200.13;5065955;28;21121;-28
2021/04/16 05:15:29;;;;;;;0.88;0.43;;;;;;;25.88;26.09;97188.69;5068807;28;20101;-27
2021/04/16 05:17:54;;;;;;;0.60;0.40;;;;;;;25.87;26.08;97194.88;5064758;28;20312;-27
2021/04/16 05:20:22;;;;;;;0.70;0.30;;;;;;;25.87;26.32;97192.25;5064295;28;20055;-23
2021/04/16 05:22:47;;;;;;;0.80;0.35;;;;;;;25.87;26.14;97198.38;5059864;28;20580;-25
2021/04/16 05:25:13;;;;;;;0.65;0.32;;;;;;;25.86;26.24;97190.56;5060694;28;20024;-26
2021/04/16 05:27:38;;;;;;;0.80;0.63;;;;;;;25.87;26.09;97197.50;5060441;28;20090;-23
2021/04/16 05:30:05;;;;;;;1.02;0.50;;;;;;;25.86;26.18;97190.56;5065849;28;20035;-22
2021/04/16 05:32:30;;;;;;;0.85;0.60;;;;;;;25.85;26.12;97194.94;5067536;28;20036;-25
2021/04/16 05:34:56;;;;;;;0.57;0.45;;;;;;;25.86;26.20;97195.81;5061246;28;20074;-25
2021/04/16 05:37:21;;;;;;;0.55;0.50;;;;;;;25.85;26.08;97194.94;5067060;28;20062;-25
2021/04/16 05:39:50;;;;;;;1.13;0.65;;;;;;;25.86;26.09;97193.19;5063643;28;20023;-24
2021/04/16 05:42:15;;;;;;;1.15;0.52;;;;;;;25.85;26.10;97194.09;5066454;28;20047;-27
2021/04/16 05:44:41;;;;;;;0.98;0.35;;;;;;;25.84;26.32;97195.88;5064705;28;20028;-25
2021/04/16 05:47:06;;;;;;;0.95;0.40;;;;;;;25.85;26.30;97194.09;5065736;28;20481;-23
2021/04/16 05:49:32;;;;;;;0.63;0.52;;;;;;;25.83;26.26;97197.63;5064601;28;20027;-27
2021/04/16 05:51:57;;;;;;;0.80;0.65;;;;;;;25.83;26.15;97202.88;5064609;28;20044;-26
2021/04/16 05:54:23;;;;;;;1.15;0.73;;;;;;;25.83;26.13;97207.31;5067384;28;20035;-26
2021/04/16 05:56:48;;;;;;;0.80;0.50;;;;;;;25.83;26.26;97209.94;5063476;28;20385;-23
2021/04/16 05:59:13;;;;;;;1.92;0.40;;;;;;;25.84;26.08;97203.75;5064111;28;20028;-26
2021/04/16 06:01:39;;;;;;;2.28;0.68;;;;;;;25.83;26.19;97202.06;5059726;28;20025;-22
2021/04/16 06:04:04;;;;;;;0.50;0.50;;;;;;;25.83;25.92;97204.69;5069280;28;20027;-26
2021/04/16 06:06:30;;;;;;;1.67;0.50;;;;;;;25.83;26.25;97212.56;5064169;28;20640;-24
2021/04/16 06:08:55;;;;;;;1.83;0.70;;;;;;;25.82;26.14;97210.84;5065100;28;20054;-25
2021/04/16 06:11:22;;;;;;;0.73;0.50;;;;;;;25.82;26.19;97206.44;5058542;28;20025;-25
2021/04/16 06:13:47;;;;;;;0.50;0.40;;;;;;;25.82;26.34;97209.06;5062100;28;20493;-25
2021/04/16 06:16:12;;;;;;;1.92;0.70;;;;;;;25.82;26.01;97203.81;5061861;28;20047;-27
2021/04/16 06:18:38;;;;;;;1.65;0.55;;;;;;;25.78;26.21;97202.25;5062029;28;20500;-27
2021/04/16 06:21:04;;;;;;;2.78;0.60;;;;;;;25.81;26.36;97207.38;5062419;28;20035;-23
2021/04/16 06:23:29;;;;;;;0.65;0.60;;;;;;;25.82;26.12;97210.84;5062094;28;20109;-23
2021/04/16 06:25:55;;;;;;;1.02;0.60;;;;;;;25.82;26.19;97216.94;5059591;28;20032;-24
2021/04/16 06:28:20;;;;;;;0.75;0.50;;;;;;;25.83;26.22;97207.31;5064369;28;20229;-26
2021/04/16 06:30:46;;;;;;;1.13;0.60;;;;;;;25.82;26.22;97206.44;5068922;28;20024;-21
2021/04/16 06:33:24;;;;;;;1.45;0.57;;;;;;;25.81;26.24;97202.13;5064755;28;20539;-23
2021/04/16 06:35:57;;;;;;;0.47;0.45;;;;;;;25.81;26.14;97199.50;5061906;28;20032;-28
2021/04/16 06:38:53;;;;;;;0.93;0.70;;;;;;;25.81;26.34;97202.13;5058511;28;20511;-26
2021/04/16 06:41:23;;;;;;;25.88;2.20;;;;;;;25.80;25.76;97192.53;5062217;28;20037;-27
2021/04/16 06:43:50;;;;;;;4.88;1.13;;;;;;;25.80;25.91;97204.81;5061811;28;20020;-28
2021/04/16 06:46:22;;;;;;;3.58;0.95;;;;;;;25.79;26.15;97201.34;5060891;28;20029;-26
2021/04/16 06:48:47;;;;;;;7.00;1.67;;;;;;;25.78;25.72;97207.50;5047903;28;20084;-23
2021/04/16 06:51:13;;;;;;;8.20;1.63;;;;;;;25.78;25.93;97204.88;5064631;28;20048;-22
2021/04/16 06:54:00;;;;;;;4.55;1.25;;;;;;;25.77;25.66;97195.31;5062685;28;20028;-26
2021/04/16 06:56:41;;;;;;;4.13;2.13;;;;;;;25.74;24.64;97203.31;5064396;28;20033;-28
2021/04/16 06:59:26;;;;;;;3.38;1.85;;;;;;;25.67;24.41;97201.91;5063103;28;20255;-28
2021/04/16 07:01:59;;;;;;;4.20;1.90;;;;;;;25.60;23.95;97203.09;5068157;28;20052;-28
2021/04/16 07:04:40;;;;;;;2.35;1.70;;;;;;;25.52;24.18;97199.03;5062386;28;20864;-28
2021/04/16 07:07:29;;;;;;;5.60;2.45;;;;;;;25.45;23.71;97202.88;5051439;28;20035;-25
2021/04/16 07:10:00;;;;;;;8.02;3.53;;;;;;;25.39;23.83;97203.13;5066550;28;20032;-22
2021/04/16 07:12:25;;;;;;;;;;;;;;;25.34;23.54;97205.09;5061871;28;20032;-22
2021/04/16 07:14:52;;;;;;;3.80;2.20;;;;;;;25.27;23.78;97205.38;5062211;28;19967;-29
2021/04/16 07:17:20;;;;;;;4.20;2.00;;;;;;;25.22;23.67;97207.38;5061088;28;20050;-25
2021/04/16 07:19:45;;;;;;;8.15;2.35;;;;;;;25.19;23.65;97215.38;5058883;28;20032;-24
2021/04/16 07:22:37;;;;;;;4.55;2.30;;;;;;;25.12;23.56;97201.66;5060437;28;20660;-27
2021/04/16 07:25:10;;;;;;;;;;;;;;;25.12;23.33;97206.06;5077776;28;20032;-25
2021/04/16 07:27:44;;;;;;;2.95;1.92;;;;;;;25.09;23.35;97214.06;5061720;28;19948;-26
2021/04/16 07:30:36;;;;;;;3.25;1.80;;;;;;;25.03;23.35;97210.81;5039281;28;20515;-27
2021/04/16 07:33:01;;;;;;;3.50;1.83;;;;;;;25.00;23.29;97213.53;5056780;28;20266;-24
2021/04/16 07:35:33;;;;;;;5.18;2.10;;;;;;;24.97;23.30;97215.47;5062375;28;20093;-28
2021/04/16 07:38:29;;;;;;;2.75;1.80;;;;;;;24.94;23.09;97211.19;5061637;28;20066;-25
2021/04/16 07:41:15;;;;;;;2.33;2.13;;;;;;;24.91;22.89;97213.94;5056965;28;20043;-25
2021/04/16 07:43:41;;;;;;;5.55;2.30;;;;;;;24.89;23.10;97216.63;5047143;28;20024;-27
2021/04/16 07:46:06;;;;;;;3.85;2.17;;;;;;;24.87;23.13;97212.38;5061033;28;20488;-24
2021/04/16 07:48:35;;;;;;;2.25;2.00;;;;;;;24.85;23.34;97212.44;5061089;28;20028;-26
2021/04/16 07:51:03;;;;;;;4.82;2.10;;;;;;;24.84;23.00;97207.25;5060615;28;20024;-25
2021/04/16 07:53:34;;;;;;;3.50;2.40;;;;;;;24.81;22.98;97210.81;5061140;28;20024;-30
2021/04/16 07:56:16;;;;;;;6.18;2.20;;;;;;;24.80;22.89;97217.00;5059948;28;20031;-24
2021/04/16 07:58:42;;;;;;;3.20;2.17;;;;;;;24.77;23.02;97212.72;5056693;28;20058;-24
2021/04/16 08:01:28;;;;;;;4.57;2.33;;;;;;;24.75;22.91;97211.94;5042597;28;20035;-29
2021/04/16 08:04:06;;;;;;;4.35;2.42;;;;;;;24.73;22.81;97211.16;5060597;28;20520;-27
2021/04/16 08:06:51;;;;;;;4.13;2.05;;;;;;;24.72;22.92;97217.31;5061996;28;20042;-27
2021/04/16 08:09:26;;;;;;;3.35;1.95;;;;;;;24.70;22.88;97211.28;5060428;28;21497;-22
2021/04/16 08:11:52;;;;;;;4.60;2.10;;;;;;;24.70;22.77;97218.31;5062371;28;20056;-23
2021/04/16 08:14:31;;;;;;;4.72;2.28;;;;;;;24.68;22.88;97210.50;5042935;28;20158;-22
2021/04/16 08:17:14;;;;;;;2.63;1.90;;;;;;;24.67;22.97;97212.25;5078553;28;20574;-25
2021/04/16 08:19:39;;;;;;;2.30;1.88;;;;;;;24.68;22.74;97215.75;5048742;28;20024;-25
2021/04/16 08:22:30;;;;;;;7.47;1.95;;;;;;;24.68;22.78;97218.38;5042830;28;20556;-28
2021/04/16 08:25:02;;;;;;;6.63;2.10;;;;;;;24.67;22.97;97217.50;5060019;28;20028;-25
2021/04/16 08:27:33;;;;;;;2.22;2.00;;;;;;;24.69;22.54;97224.44;5062792;28;20032;-27
2021/04/16 08:30:06;;;;;;;3.53;1.95;;;;;;;24.67;22.58;97219.25;5061786;28;20583;-24
2021/04/16 08:32:50;;;;;;;6.03;2.30;;;;;;;24.64;22.73;97224.66;5060724;28;20155;-25
2021/04/16 08:35:26;;;;;;;5.20;2.40;;;;;;;24.62;22.65;97226.47;5060089;28;20065;-23
2021/04/16 08:37:55;;;;;;;3.63;2.20;;;;;;;24.61;22.61;97219.53;5058884;28;20150;-26
2021/04/16 08:40:29;;;;;;;2.70;2.20;;;;;;;24.58;22.59;97211.78;5055113;28;20040;-26
2021/04/16 08:42:57;;;;;;;13.77;2.30;;;;;;;24.58;22.46;97217.03;5042892;28;20032;-25
2021/04/16 08:45:23;;;;;;;7.05;2.58;;;;;;;24.52;21.36;97224.22;5057838;28;20031;-27
2021/04/16 08:47:56;;;;;;;6.82;3.30;;;;;;;24.36;20.43;97221.38;5062730;28;20035;-26
2021/04/16 08:50:25;;;;;;;3.53;2.60;;;;;;;24.18;20.77;97222.13;5062486;28;20044;-31
2021/04/16 08:52:52;;;;;;;6.55;2.35;;;;;;;24.08;21.11;97224.22;5055071;28;20152;-24
2021/04/16 08:55:27;;;;;;;6.07;2.00;;;;;;;24.02;21.54;97223.53;5063149;28;20412;-26
2021/04/16 08:58:01;;;;;;;3.97;1.80;;;;;;;24.02;21.91;97210.44;5059243;28;20024;-24
2021/04/16 09:00:33;;;;;;;4.63;1.30;;;;;;;24.07;21.90;97215.53;5061795;28;20742;-27
2021/04/16 09:02:58;;;;;;;4.10;1.40;;;;;;;24.13;22.13;97217.06;5063214;28;20032;-25
2021/04/16 09:05:59;;;;;;;2.83;1.23;;;;;;;24.20;22.42;97222.91;5054596;28;21235;-24
2021/04/16 09:08:28;;;;;;;2.85;1.55;;;;;;;24.26;22.48;97222.69;5028648;28;21766;-25
2021/04/16 09:10:57;;;;;;;4.38;1.55;;;;;;;24.34;22.67;97222.38;5038599;28;20033;-24
2021/04/16 09:13:41;;;;;;;2.55;1.40;;;;;;;24.40;22.74;97217.72;5050152;28;20060;-28
2021/04/16 09:16:34;;;;;;;9.20;1.33;;;;;;;24.47;22.58;97223.56;5034453;28;22565;-27
2021/04/16 09:19:24;;;;;;;4.13;1.20;;;;;;;24.52;22.85;97218.97;5041263;28;20454;-26
2021/04/16 09:22:05;;;;;;;3.92;1.40;;;;;;;24.59;22.94;97213.50;5040603;28;20033;-27
2021/04/16 09:24:57;;;;;;;10.48;1.33;;;;;;;24.60;23.06;97215.22;5047062;28;20024;-26
2021/04/16 09:27:25;;;;;;;17.98;1.88;;;;;;;24.69;22.89;97220.06;5038788;28;20028;-28
2021/04/16 09:30:05;;;;;;;22.70;1.80;;;;;;;24.73;23.03;97215.53;5038911;28;20029;-25
2021/04/16 09:32:34;;;;;;;4.00;1.20;;;;;;;24.77;22.97;97217.97;5045235;28;22576;-29
2021/04/16 09:35:03;;;;;;;4.00;1.20;;;;;;;24.80;23.14;97212.59;5044154;28;20024;-24
2021/04/16 09:37:34;;;;;;;4.72;1.65;;;;;;;24.84;23.14;97215.13;5038749;28;20032;-24
2021/04/16 09:40:15;;;;;;;4.63;1.60;;;;;;;24.87;23.08;97207.97;5040729;28;20043;-25
2021/04/16 09:42:42;;;;;;;2.58;1.20;;;;;;;24.90;23.18;97212.25;5043376;28;20020;-25
2021/04/16 09:45:28;;;;;;;6.10;1.60;;;;;;;24.92;23.10;97218.25;5039980;28;20024;-25
2021/04/16 09:48:09;;;;;;;15.73;1.92;;;;;;;24.95;22.99;97223.38;5032666;28;20071;-30
2021/04/16 09:50:48;;;;;;;5.75;1.30;;;;;;;24.96;23.03;97216.34;5036448;28;20556;-26
2021/04/16 09:53:30;;;;;;;12.40;1.55;;;;;;;24.97;23.23;97215.47;5034428;28;20036;-25
2021/04/16 09:55:58;;;;;;;;;;;;;;;25.00;23.37;97218.78;5038279;28;20159;-21
2021/04/16 09:58:33;;;;;;;7.50;1.27;;;;;;;25.02;23.25;97224.81;5039528;28;19916;-26
2021/04/16 10:01:10;;;;;;;8.43;1.40;;;;;;;25.03;23.35;97213.44;5039879;28;20811;-23
2021/04/16 10:03:35;;;;;;;7.18;1.80;;;;;;;25.07;23.45;97213.28;5024543;28;20028;-24
2021/04/16 10:06:13;;;;;;;15.35;1.40;;;;;;;25.09;23.58;97214.06;5043224;28;23458;-22
2021/04/16 10:08:38;;;;;;;10.35;1.48;;;;;;;25.10;23.46;97218.38;5039582;28;20094;-29
2021/04/16 10:11:04;;;;;;;9.38;1.65;;;;;;;25.12;23.42;97221.78;5021977;28;20032;-26
2021/04/16 10:13:35;;;;;;;4.18;1.40;;;;;;;25.13;23.65;97218.28;5037430;28;20037;-25
2021/04/16 10:16:00;;;;;;;6.07;1.42;;;;;;;25.14;23.67;97215.56;5035373;28;20036;-25
2021/04/16 10:18:31;;;;;;;9.05;1.50;;;;;;;25.17;23.64;97217.22;5034535;28;20168;-25
2021/04/16 10:21:03;;;;;;;5.00;1.25;;;;;;;25.20;24.05;97206.56;5035292;28;20024;-27
2021/04/16 10:23:50;;;;;;;3.40;1.48;;;;;;;25.23;23.71;97206.44;5048163;28;20052;-28
2021/04/16 12:40:24;;;;;;;42.20;13.15;;;;;;;25.23;24.94;97188.09;5043929;28;20060;-25
2021/04/16 12:42:50;;;;;;;39.35;12.20;;;;;;;25.25;25.06;97194.09;5048629;28;20815;-28
2021/04/16 12:45:18;;;;;;;30.10;10.77;;;;;;;25.27;25.12;97183.53;5028880;28;20039;-25
2021/04/16 12:47:44;;;;;;;32.90;9.77;;;;;;;25.28;25.15;97186.09;5043190;28;20028;-22
2021/04/16 12:50:11;;;;;;;26.30;9.80;;;;;;;25.29;25.45;97176.47;5046844;28;20534;-27
2021/04/16 12:52:36;;;;;;;28.40;10.52;;;;;;;25.30;25.42;97184.28;5046324;28;20033;-24
2021/04/16 12:55:01;;;;;;;27.83;9.80;;;;;;;25.25;25.42;97167.88;5046821;28;22007;-25
2021/04/16 12:57:44;;;;;;;27.83;10.07;;;;;;;25.33;25.69;97179.81;5047269;28;20046;-24
2021/04/16 13:00:13;;;;;;;20.35;7.15;;;;;;;25.34;25.49;97176.25;5024634;28;20028;-26
2021/04/16 13:02:39;;;;;;;27.38;8.15;;;;;;;25.36;25.61;97182.28;5037661;28;20497;-24
2021/04/16 13:05:15;;;;;;;23.00;7.85;;;;;;;25.36;25.74;97177.03;5039383;28;20039;-28
2021/04/16 13:07:40;;;;;;;21.15;7.55;;;;;;;25.37;25.87;97184.00;5022609;28;20032;-24
2021/04/16 13:10:10;;;;;;;17.98;7.30;;;;;;;25.38;25.78;97177.81;5046647;28;20024;-23
2021/04/16 13:12:36;;;;;;;19.35;6.80;;;;;;;25.38;25.77;97175.19;5050539;28;20032;-26
2021/04/16 13:15:02;;;;;;;17.90;6.57;;;;;;;25.39;25.84;97176.88;5048595;28;20027;-26
2021/04/16 13:17:27;;;;;;;19.38;7.25;;;;;;;25.40;26.02;97176.81;5048502;28;20032;-25
2021/04/16 13:19:54;;;;;;;19.67;6.65;;;;;;;25.39;25.78;97169.00;5025100;28;20436;-22
2021/04/16 13:22:20;;;;;;;15.73;6.28;;;;;;;25.41;25.98;97175.06;5031114;28;20043;-29
2021/04/16 13:24:46;;;;;;;17.50;6.60;;;;;;;25.41;25.92;97175.06;5047793;28;20025;-25
2021/04/16 13:27:14;;;;;;;15.63;6.60;;;;;;;25.41;26.10;97167.19;5044825;28;20701;-25
2021/04/16 13:29:40;;;;;;;15.10;6.25;;;;;;;25.42;26.03;97166.25;5049399;28;20035;-26
2021/04/16 13:32:06;;;;;;;16.85;6.10;;;;;;;25.41;25.95;97160.19;5048699;28;20028;-24
2021/04/16 13:34:32;;;;;;;13.80;5.80;;;;;;;25.43;25.93;97158.31;5047311;28;20616;-27
2021/04/16 13:36:57;;;;;;;19.42;6.32;;;;;;;25.42;26.12;97156.63;5046554;28;20036;-25
2021/04/16 13:39:23;;;;;;;15.18;5.53;;;;;;;25.44;26.27;97153.94;5029269;28;20051;-22
2021/04/16 13:41:49;;;;;;;24.23;5.35;;;;;;;25.43;26.11;97153.06;5046525;28;20361;-25
2021/04/16 13:44:15;;;;;;;12.25;5.32;;;;;;;25.44;26.21;97154.78;5046244;28;20048;-23
2021/04/16 13:46:41;;;;;;;17.90;5.10;;;;;;;25.45;26.19;97145.13;5045201;28;20037;-25
2021/04/16 13:49:08;;;;;;;14.07;5.32;;;;;;;25.46;26.12;97144.22;5047334;28;20448;-24
2021/04/16 13:51:36;;;;;;;14.93;5.13;;;;;;;25.45;26.25;97145.97;5047231;28;20035;-26
2021/04/16 13:54:06;;;;;;;14.80;4.43;;;;;;;25.46;26.21;97146.84;5048737;28;20040;-25